createdAt,value
2019-01-18T00:02:01.440Z,96072.47
2019-01-18T00:04:27.286Z,96079.27
2019-01-18T00:06:53.121Z,96079.26
2019-01-18T00:09:18.957Z,96081.05
2019-01-18T00:11:44.783Z,96077.41
2019-01-18T00:14:10.643Z,96080.52
2019-01-18T00:16:36.489Z,96081.06
2019-01-18T00:19:02.463Z,96079.30
2019-01-18T00:21:28.295Z,96086.28
2019-01-18T00:23:54.180Z,96098.28
2019-01-18T00:26:21.155Z,96088.39
2019-01-18T00:28:47.108Z,96086.84
2019-01-18T00:31:12.943Z,96082.16
2019-01-18T00:33:38.817Z,96082.69
2019-01-18T00:36:04.744Z,96089.44
2019-01-18T00:38:30.591Z,96090.49
2019-01-18T00:40:56.442Z,96096.22
2019-01-18T00:43:22.298Z,96091.03
2019-01-18T00:45:48.136Z,96091.07
2019-01-18T00:48:14.026Z,96100.95
2019-01-18T00:50:40.124Z,96100.20
2019-01-18T00:53:05.980Z,96110.58
2019-01-18T00:55:31.940Z,96107.45
2019-01-18T00:57:57.799Z,96107.45
2019-01-18T01:00:25.943Z,96108.45
2019-01-18T01:02:52.111Z,96109.23
2019-01-18T01:05:19.133Z,96111.81
2019-01-18T01:07:44.966Z,96112.58
2019-01-18T01:10:10.908Z,96117.53
2019-01-18T01:12:37.055Z,96120.12
2019-01-18T01:15:06.803Z,96124.29
2019-01-18T01:17:32.654Z,96126.35
2019-01-18T01:19:58.603Z,96128.17
2019-01-18T01:22:24.431Z,96125.83
2019-01-18T01:24:50.252Z,96132.06
2019-01-18T01:27:16.177Z,96133.62
2019-01-18T01:29:43.191Z,96120.91
2019-01-18T01:32:09.162Z,96136.45
2019-01-18T01:34:35.140Z,96139.84
2019-01-18T01:37:00.962Z,96151.28
2019-01-18T01:39:26.833Z,96148.42
2019-01-18T01:41:52.660Z,96148.16
2019-01-18T01:44:18.497Z,96147.89
2019-01-18T01:46:44.315Z,96145.56
2019-01-18T01:49:10.168Z,96147.91
2019-01-18T01:51:35.992Z,96148.67
2019-01-18T01:54:01.821Z,96139.58
2019-01-18T01:56:27.665Z,96149.71
2019-01-18T01:58:53.517Z,96148.67
2019-01-18T02:01:19.333Z,96150.73
2019-01-18T02:03:45.185Z,96151.26
2019-01-18T02:06:11.116Z,96156.73
2019-01-18T02:08:36.956Z,96160.36
2019-01-18T02:11:02.887Z,96156.70
2019-01-18T02:13:28.763Z,96159.06
2019-01-18T02:15:54.581Z,96163.20
2019-01-18T02:18:20.453Z,96160.11
2019-01-18T02:20:46.270Z,96159.84
2019-01-18T02:23:12.103Z,96160.88
2019-01-18T02:25:38.759Z,96157.51
2019-01-18T02:28:04.582Z,96154.40
2019-01-18T02:30:30.506Z,96159.59
2019-01-18T02:32:56.339Z,96163.77
2019-01-18T02:35:22.270Z,96164.55
2019-01-18T02:37:48.287Z,96169.47
2019-01-18T02:40:14.705Z,96168.44
2019-01-18T02:42:40.546Z,96170.27
2019-01-18T02:45:10.057Z,96172.61
2019-01-18T02:47:35.884Z,96179.89
2019-01-18T02:50:02.208Z,96179.89
2019-01-18T02:52:28.035Z,96177.80
2019-01-18T02:54:53.978Z,96186.12
2019-01-18T02:57:19.781Z,96189.50
2019-01-18T02:59:45.623Z,96184.81
2019-01-18T03:02:11.435Z,96190.27
2019-01-18T03:04:37.258Z,96199.11
2019-01-18T03:07:03.181Z,96190.79
2019-01-18T03:09:29.038Z,96192.11
2019-01-18T03:11:54.972Z,96193.39
2019-01-18T03:14:20.795Z,96201.19
2019-01-18T03:16:46.607Z,96202.25
2019-01-18T03:19:12.436Z,96202.25
2019-01-18T03:21:38.315Z,96203.01
2019-01-18T03:24:04.144Z,96195.73
2019-01-18T03:26:29.964Z,96204.06
2019-01-18T03:28:55.823Z,96205.09
2019-01-18T03:31:21.644Z,96216.28
2019-01-18T03:33:47.490Z,96224.88
2019-01-18T03:36:13.407Z,96227.48
2019-01-18T03:38:42.767Z,96229.55
2019-01-18T03:41:08.583Z,96234.21
2019-01-18T03:43:34.479Z,96236.02
2019-01-18T03:46:00.299Z,96235.52
2019-01-18T03:48:26.127Z,96235.23
2019-01-18T03:50:51.950Z,96242.01
2019-01-18T03:53:17.895Z,96240.20
2019-01-18T03:55:43.716Z,96240.96
2019-01-18T03:58:09.573Z,96238.89
2019-01-18T04:00:35.390Z,96240.98
2019-01-18T04:03:01.265Z,96238.91
2019-01-18T04:05:27.189Z,96249.02
2019-01-18T04:07:53.114Z,96256.55
2019-01-18T04:10:20.355Z,96264.58
2019-01-18T04:12:46.279Z,96269.77
2019-01-18T04:15:14.509Z,96268.21
2019-01-18T04:17:40.336Z,96267.41
2019-01-18T04:20:09.390Z,96274.44
2019-01-18T04:22:35.230Z,96277.81
2019-01-18T04:25:01.176Z,96286.12
2019-01-18T04:27:27.001Z,96291.31
2019-01-18T04:29:52.856Z,96296.25
2019-01-18T04:32:18.677Z,96304.59
2019-01-18T04:34:44.528Z,96308.48
2019-01-18T04:37:12.252Z,96307.70
2019-01-18T04:39:38.082Z,96312.91
2019-01-18T04:42:03.919Z,96317.86
2019-01-18T04:44:29.769Z,96310.30
2019-01-18T04:46:55.594Z,96318.36
2019-01-18T04:49:21.489Z,96321.73
2019-01-18T04:51:47.300Z,96329.30
2019-01-18T04:54:13.193Z,96335.29
2019-01-18T04:56:39.017Z,96319.70
2019-01-18T04:59:04.833Z,96334.53
2019-01-18T05:01:30.675Z,96340.51
2019-01-18T05:03:56.641Z,96348.54
2019-01-18T05:06:22.625Z,96360.78
2019-01-18T05:08:48.740Z,96367.51
2019-01-18T05:11:14.632Z,96365.95
2019-01-18T05:13:40.464Z,96386.73
2019-01-18T05:16:08.206Z,96381.54
2019-01-18T05:18:37.712Z,96377.64
2019-01-18T05:21:03.535Z,96392.20
2019-01-18T05:23:29.376Z,96387.00
2019-01-18T05:25:55.178Z,96400.47
2019-01-18T05:28:21.027Z,96398.42
2019-01-18T05:30:47.746Z,96407.00
2019-01-18T05:33:13.926Z,96413.47
2019-01-18T05:35:39.757Z,96413.72
2019-01-18T05:38:05.573Z,96421.78
2019-01-18T05:40:31.612Z,96424.90
2019-01-18T05:42:57.443Z,96428.27
2019-01-18T05:45:23.383Z,96426.15
2019-01-18T05:47:49.696Z,96429.27
2019-01-18T05:50:20.499Z,96421.98
2019-01-18T05:52:46.314Z,96434.45
2019-01-18T05:55:12.437Z,96448.22
2019-01-18T05:57:38.362Z,96456.77
2019-01-18T06:00:24.060Z,96457.56
2019-01-18T06:02:49.882Z,96461.47
2019-01-18T06:05:17.433Z,96464.58
2019-01-18T06:07:43.663Z,96476.28
2019-01-18T06:10:09.595Z,96473.41
2019-01-18T06:12:35.406Z,96474.71
2019-01-18T06:15:01.349Z,96488.73
2019-01-18T06:17:27.206Z,96493.09
2019-01-18T06:19:53.065Z,96495.15
2019-01-18T06:22:18.882Z,96499.30
2019-01-18T06:24:44.726Z,96504.42
2019-01-18T06:27:10.555Z,96505.39
2019-01-18T06:29:36.377Z,96503.89
2019-01-18T06:32:02.194Z,96506.05
2019-01-18T06:34:28.059Z,96503.66
2019-01-18T06:36:53.871Z,96508.06
2019-01-18T06:39:19.746Z,96516.63
2019-01-18T06:41:46.113Z,96522.28
2019-01-18T06:44:11.959Z,96527.97
2019-01-18T06:46:37.778Z,96534.53
2019-01-18T06:49:03.990Z,96540.00
2019-01-18T06:51:29.810Z,96548.63
2019-01-18T06:53:55.636Z,96551.66
2019-01-18T06:56:21.446Z,96562.84
2019-01-18T06:58:47.277Z,96571.37
2019-01-18T07:01:13.088Z,96573.73
2019-01-18T07:03:38.928Z,96572.17
2019-01-18T07:06:04.758Z,96576.61
2019-01-18T07:08:30.604Z,96578.66
2019-01-18T07:10:56.416Z,96580.47
2019-01-18T07:13:22.361Z,96593.46
2019-01-18T07:15:48.229Z,96597.55
2019-01-18T07:18:14.053Z,96609.29
2019-01-18T07:20:39.895Z,96620.24
2019-01-18T07:23:05.746Z,96623.89
2019-01-18T07:25:31.662Z,96629.94
2019-01-18T07:27:57.506Z,96630.35
2019-01-18T07:30:31.595Z,96638.41
2019-01-18T07:32:57.510Z,96648.09
2019-01-18T07:35:23.666Z,96645.18
2019-01-18T07:37:49.493Z,96648.52
2019-01-18T07:40:15.661Z,96651.62
2019-01-18T07:42:41.796Z,96659.38
2019-01-18T07:45:11.442Z,96660.06
2019-01-18T07:47:37.249Z,96662.02
2019-01-18T07:50:06.941Z,96660.73
2019-01-18T07:52:32.882Z,96664.17
2019-01-18T07:54:58.703Z,96676.19
2019-01-18T07:57:24.549Z,96674.43
2019-01-18T07:59:50.439Z,96679.63
2019-01-18T08:02:16.261Z,96640.33
2019-01-18T08:04:42.127Z,96689.02
2019-01-18T08:07:07.945Z,96686.48
2019-01-18T08:09:33.796Z,96701.83
2019-01-18T08:11:59.618Z,96706.77
2019-01-18T08:14:25.450Z,96713.28
2019-01-18T08:16:51.321Z,96717.41
2019-01-18T08:19:17.178Z,96720.05
2019-01-18T08:21:43.018Z,96726.53
2019-01-18T08:24:08.860Z,96728.68
2019-01-18T08:26:34.674Z,96738.29
2019-01-18T08:29:00.529Z,96739.61
2019-01-18T08:31:29.002Z,96751.91
2019-01-18T08:33:54.101Z,96755.31
2019-01-18T08:36:19.925Z,96756.91
2019-01-18T08:38:45.762Z,96758.95
2019-01-18T08:41:11.582Z,96762.75
2019-01-18T08:43:37.416Z,96766.23
2019-01-18T08:46:03.381Z,96787.03
2019-01-18T08:48:29.228Z,96781.80
2019-01-18T08:50:55.067Z,96784.75
2019-01-18T08:53:20.926Z,96787.94
2019-01-18T08:55:46.860Z,96792.66
2019-01-18T08:58:12.671Z,96795.07
2019-01-18T09:00:38.648Z,96799.86
2019-01-18T09:03:04.562Z,96795.96
2019-01-18T09:05:30.408Z,96809.87
2019-01-18T09:07:56.227Z,96805.59
2019-01-18T09:10:28.572Z,96813.23
2019-01-18T09:12:54.446Z,96816.06
2019-01-18T09:15:20.277Z,96819.50
2019-01-18T09:17:46.226Z,96819.59
2019-01-18T09:20:17.969Z,96829.70
2019-01-18T09:22:43.881Z,96831.83
2019-01-18T09:25:09.763Z,96832.44
2019-01-18T09:27:35.635Z,96839.26
2019-01-18T09:30:01.453Z,96844.80
2019-01-18T09:32:27.491Z,96845.14
2019-01-18T09:34:53.341Z,96839.73
2019-01-18T09:37:19.319Z,96851.69
2019-01-18T09:39:45.459Z,96856.64
2019-01-18T09:42:11.262Z,96856.44
2019-01-18T09:44:37.093Z,96869.14
2019-01-18T09:47:03.012Z,96863.66
2019-01-18T09:49:28.935Z,96869.37
2019-01-18T09:51:54.753Z,96875.07
2019-01-18T09:54:20.592Z,96876.89
2019-01-18T09:56:46.469Z,96872.98
2019-01-18T09:59:12.305Z,96871.17
2019-01-18T10:01:38.126Z,96875.23
2019-01-18T10:04:03.978Z,96876.98
2019-01-18T10:06:29.820Z,96887.39
2019-01-18T10:08:55.644Z,96898.13
2019-01-18T10:11:21.480Z,96901.66
2019-01-18T10:13:47.290Z,96897.62
2019-01-18T10:16:13.349Z,96897.37
2019-01-18T10:18:39.167Z,96900.08
2019-01-18T10:21:04.988Z,96894.25
2019-01-18T10:23:30.937Z,96896.95
2019-01-18T10:25:56.754Z,96895.39
2019-01-18T10:28:22.576Z,96890.05
2019-01-18T10:30:48.416Z,96893.00
2019-01-18T10:33:14.226Z,96895.59
2019-01-18T10:35:40.071Z,96916.65
2019-01-18T10:38:05.994Z,96898.56
2019-01-18T10:40:31.838Z,96899.57
2019-01-18T10:42:57.780Z,96895.08
2019-01-18T10:45:23.707Z,96893.39
2019-01-18T10:47:49.577Z,96892.80
2019-01-18T10:50:20.485Z,96885.88
2019-01-18T10:52:46.395Z,96881.53
2019-01-18T10:55:12.320Z,96883.11
2019-01-18T10:57:38.248Z,96876.87
2019-01-18T11:00:08.094Z,96881.75
2019-01-18T11:02:33.921Z,96875.02
2019-01-18T11:04:59.764Z,96872.82
2019-01-18T11:07:25.580Z,96882.00
2019-01-18T11:09:51.411Z,96886.67
2019-01-18T11:12:17.242Z,96887.81
2019-01-18T11:14:43.116Z,96877.41
2019-01-18T11:17:08.949Z,96884.56
2019-01-18T11:19:34.803Z,96870.83
2019-01-18T11:22:00.859Z,96871.38
2019-01-18T11:24:26.782Z,96871.38
2019-01-18T11:26:52.636Z,96877.52
2019-01-18T11:29:18.450Z,96881.63
2019-01-18T11:31:44.269Z,96883.77
2019-01-18T11:34:10.136Z,96876.84
2019-01-18T11:36:36.035Z,96874.23
2019-01-18T11:39:02.770Z,96875.47
2019-01-18T11:41:31.494Z,96880.20
2019-01-18T11:43:57.413Z,96883.02
2019-01-18T11:46:23.264Z,96886.38
2019-01-18T11:48:50.403Z,96896.71
2019-01-18T11:51:16.424Z,96894.54
2019-01-18T11:53:42.242Z,96890.29
2019-01-18T11:56:08.071Z,96886.27
2019-01-18T11:58:33.913Z,96881.20
2019-01-18T12:00:59.725Z,96873.41
2019-01-18T12:03:25.542Z,96865.08
2019-01-18T12:05:51.368Z,96866.11
2019-01-18T12:08:17.402Z,96879.23
2019-01-18T12:10:43.228Z,96871.47
2019-01-18T12:13:09.088Z,96877.27
2019-01-18T12:15:34.929Z,96879.91
2019-01-18T12:18:00.758Z,96876.83
2019-01-18T12:20:32.103Z,96876.86
2019-01-18T12:22:58.035Z,96874.83
2019-01-18T12:25:23.961Z,96880.63
2019-01-18T12:27:49.891Z,96889.23
2019-01-18T12:30:19.032Z,96895.42
2019-01-18T12:32:44.868Z,96894.09
2019-01-18T12:35:10.889Z,96894.08
2019-01-18T12:37:36.794Z,96894.30
2019-01-18T12:40:03.351Z,96889.84
2019-01-18T12:42:29.306Z,96886.27
2019-01-18T12:44:55.218Z,96891.72
2019-01-18T12:47:21.144Z,96880.80
2019-01-18T12:49:46.981Z,96897.59
2019-01-18T12:52:12.807Z,96889.69
2019-01-18T12:54:38.648Z,96892.70
2019-01-18T12:57:04.470Z,96892.19
2019-01-18T12:59:30.310Z,96891.60
2019-01-18T13:01:56.148Z,96895.75
2019-01-18T13:04:21.964Z,96891.39
2019-01-18T13:06:47.804Z,96891.92
2019-01-18T13:09:13.624Z,96899.52
2019-01-18T13:11:39.440Z,96892.53
2019-01-18T13:14:05.390Z,96892.48
2019-01-18T13:16:31.219Z,96887.49
2019-01-18T13:18:57.039Z,96863.91
2019-01-18T13:21:23.023Z,96884.09
2019-01-18T13:23:48.869Z,96894.03
2019-01-18T13:26:14.680Z,96892.94
2019-01-18T13:28:41.595Z,96890.97
2019-01-18T13:31:07.424Z,96891.29
2019-01-18T13:33:33.349Z,96889.97
2019-01-18T13:35:59.275Z,96891.09
2019-01-18T13:38:25.126Z,96890.09
2019-01-18T13:40:59.090Z,96897.59
2019-01-18T13:43:22.916Z,96920.28
2019-01-18T13:45:50.616Z,96903.05
2019-01-18T13:48:16.441Z,96909.47
2019-01-18T13:50:42.370Z,96887.31
2019-01-18T13:53:08.219Z,96906.56
2019-01-18T13:55:34.064Z,96904.94
2019-01-18T13:57:59.906Z,96907.25
2019-01-18T14:00:25.718Z,96909.44
2019-01-18T14:02:51.569Z,96910.20
2019-01-18T14:05:17.681Z,96914.28
2019-01-18T14:07:43.717Z,96912.41
2019-01-18T14:10:31.724Z,96916.34
2019-01-18T14:12:57.709Z,96924.77
2019-01-18T14:15:24.537Z,96923.21
2019-01-18T14:17:52.420Z,96931.88
2019-01-18T14:20:21.037Z,96938.77
2019-01-18T14:22:47.455Z,96933.34
2019-01-18T14:25:13.301Z,96939.47
2019-01-18T14:27:39.153Z,96937.87
2019-01-18T14:30:11.541Z,96940.12
2019-01-18T14:32:39.329Z,96937.95
2019-01-18T14:35:05.762Z,96941.42
2019-01-18T14:37:31.756Z,96946.74
2019-01-18T14:39:57.602Z,96946.61
2019-01-18T14:42:23.452Z,96943.09
2019-01-18T14:44:49.300Z,96949.36
2019-01-18T14:47:18.272Z,96952.63
2019-01-18T14:49:44.238Z,96955.81
2019-01-18T14:52:10.157Z,96964.47
2019-01-18T14:54:35.985Z,96963.47
2019-01-18T14:57:01.831Z,96933.62
2019-01-18T14:59:27.663Z,96960.67
2019-01-18T15:01:53.502Z,96945.59
2019-01-18T15:04:19.349Z,96952.10
2019-01-18T15:06:45.179Z,96958.88
2019-01-18T15:09:11.083Z,96960.45
2019-01-18T15:11:36.923Z,96949.31
2019-01-18T15:14:03.133Z,96952.01
2019-01-18T15:16:28.933Z,96952.25
2019-01-18T15:18:54.772Z,96962.05
2019-01-18T15:21:20.604Z,96962.00
2019-01-18T15:23:46.436Z,96963.34
2019-01-18T15:26:18.280Z,96968.19
2019-01-18T15:28:40.000Z,96969.17
2019-01-18T15:31:05.948Z,96970.19
2019-01-18T15:33:31.807Z,96961.85
2019-01-18T15:35:59.608Z,96970.45
2019-01-18T15:38:25.476Z,96967.27
2019-01-18T15:40:51.363Z,96967.25
2019-01-18T15:43:18.644Z,96974.64
2019-01-18T15:45:44.695Z,96967.23
2019-01-18T15:48:10.745Z,96972.91
2019-01-18T15:50:37.185Z,96976.13
2019-01-18T15:53:03.832Z,96975.81
2019-01-18T15:55:29.864Z,96978.92
2019-01-18T15:57:55.706Z,96985.22
2019-01-18T16:00:27.449Z,96993.80
2019-01-18T16:02:53.428Z,96995.97
2019-01-18T16:05:19.462Z,96994.27
2019-01-18T16:07:45.397Z,96991.56
2019-01-18T16:10:14.047Z,96994.48
2019-01-18T16:12:39.995Z,96994.16
2019-01-18T16:15:09.124Z,96996.52
2019-01-18T16:17:35.047Z,96998.66
2019-01-18T16:20:01.172Z,97007.61
2019-01-18T16:22:27.308Z,97004.91
2019-01-18T16:24:53.204Z,96999.38
2019-01-18T16:27:19.063Z,97001.17
2019-01-18T16:29:44.919Z,97001.31
2019-01-18T16:32:11.077Z,96994.55
2019-01-18T16:34:37.067Z,97003.09
2019-01-18T16:37:03.118Z,97002.28
2019-01-18T16:39:29.090Z,97001.83
2019-01-18T16:41:54.937Z,97000.71
2019-01-18T16:44:20.785Z,96995.88
2019-01-18T16:46:46.630Z,96992.97
2019-01-18T16:49:12.674Z,96998.98
2019-01-18T16:51:38.523Z,96997.62
2019-01-18T16:54:04.451Z,97002.09
2019-01-18T16:56:30.304Z,97002.06
2019-01-18T16:58:56.180Z,96997.21
2019-01-18T17:01:22.016Z,96994.82
2019-01-18T17:03:47.865Z,96994.58
2019-01-18T17:06:13.800Z,97001.81
2019-01-18T17:08:39.753Z,96997.00
2019-01-18T17:11:05.588Z,97003.20
2019-01-18T17:13:31.454Z,97001.00
2019-01-18T17:15:57.284Z,96999.39
2019-01-18T17:18:24.126Z,97001.23
2019-01-18T17:20:49.979Z,97003.93
2019-01-18T17:23:15.809Z,97005.30
2019-01-18T17:25:41.689Z,97006.97
2019-01-18T17:28:07.694Z,97008.38
2019-01-18T17:30:33.523Z,97007.16
2019-01-18T17:32:59.509Z,97005.83
2019-01-18T17:35:59.441Z,97008.65
2019-01-18T17:38:45.873Z,97016.19
2019-01-18T17:41:27.431Z,97008.10
2019-01-18T17:43:57.082Z,97010.77
2019-01-18T17:46:41.580Z,97005.78
2019-01-18T17:49:11.258Z,97014.86
2019-01-18T17:51:58.890Z,97011.13
2019-01-18T17:54:28.553Z,97013.09
2019-01-18T17:57:33.440Z,97018.83
2019-01-18T18:00:10.912Z,97019.88
2019-01-18T18:03:00.466Z,97019.88
2019-01-18T18:05:59.453Z,97018.23
2019-01-18T18:08:46.412Z,97023.68
2019-01-18T18:11:33.714Z,97016.53
2019-01-18T18:14:14.305Z,97016.65
2019-01-18T18:17:04.066Z,97024.30
2019-01-18T18:19:59.176Z,97023.52
2019-01-18T18:22:46.966Z,97019.59
2019-01-18T18:25:28.975Z,97022.77
2019-01-18T18:28:04.955Z,97028.31
2019-01-18T18:30:46.310Z,97030.96
2019-01-18T18:33:50.545Z,97031.92
2019-01-18T18:36:29.389Z,97032.71
2019-01-18T18:39:05.166Z,97032.98
2019-01-18T18:41:54.250Z,97032.16
2019-01-18T18:44:40.691Z,97042.75
2019-01-18T18:47:16.319Z,97054.55
2019-01-18T18:50:08.814Z,97036.64
2019-01-18T18:52:53.505Z,97037.61
2019-01-18T18:55:37.977Z,97041.18
2019-01-18T18:58:25.283Z,97040.95
2019-01-18T19:01:00.975Z,97045.25
2019-01-18T19:03:41.146Z,97043.00
2019-01-18T19:06:19.444Z,97045.56
2019-01-18T19:09:11.916Z,97038.17
2019-01-18T19:11:47.512Z,97031.96
2019-01-18T19:14:31.793Z,97035.02
2019-01-18T19:20:07.853Z,97033.45
2019-01-18T19:23:13.458Z,97034.55
2019-01-18T19:26:21.024Z,97031.29
2019-01-18T19:29:26.650Z,97034.80
2019-01-18T19:32:32.241Z,97037.04
2019-01-18T19:35:37.812Z,97030.66
2019-01-18T19:38:45.284Z,97029.97
2019-01-18T19:41:52.776Z,97034.41
2019-01-18T19:44:58.359Z,97034.64
2019-01-18T19:48:05.936Z,97035.58
2019-01-18T19:51:13.455Z,97042.61
2019-01-18T19:54:20.958Z,97041.56
2019-01-18T19:57:26.545Z,97040.91
2019-01-18T20:00:34.039Z,97046.64
2019-01-18T20:03:41.507Z,97039.16
2019-01-18T20:06:48.994Z,97038.88
2019-01-18T20:09:56.468Z,97033.12
2019-01-18T20:13:02.067Z,97039.30
2019-01-18T20:16:07.827Z,97038.09
2019-01-18T20:19:13.491Z,97033.42
2019-01-18T20:22:19.109Z,97042.63
2019-01-18T20:25:24.696Z,97048.20
2019-01-18T20:28:32.271Z,97043.56
2019-01-18T20:31:37.853Z,97039.54
2019-01-18T20:34:43.446Z,97047.94
2019-01-18T20:37:50.974Z,97048.20
2019-01-18T20:40:56.808Z,97044.41
2019-01-18T20:44:02.401Z,97051.02
2019-01-18T20:47:07.979Z,97049.00
2019-01-18T20:50:13.590Z,97041.02
2019-01-18T20:53:21.271Z,97049.22
2019-01-18T20:56:26.877Z,97044.86
2019-01-18T20:59:34.353Z,97049.87
2019-01-18T21:02:41.837Z,97050.38
2019-01-18T21:05:49.473Z,97045.91
2019-01-18T21:08:55.031Z,97050.40
2019-01-18T21:12:02.553Z,97058.31
2019-01-18T21:15:08.261Z,97041.59
2019-01-18T21:18:13.862Z,97046.41
2019-01-18T21:21:21.344Z,97037.21
2019-01-18T21:24:28.855Z,97035.80
2019-01-18T21:27:36.356Z,97038.32
2019-01-18T21:30:43.817Z,97041.89
2019-01-18T21:33:51.352Z,97045.60
2019-01-18T21:36:56.938Z,97038.45
2019-01-18T21:40:02.483Z,97041.41
2019-01-18T21:43:10.013Z,97036.52
2019-01-18T21:46:17.509Z,97035.12
2019-01-18T21:49:24.985Z,97036.80
2019-01-18T21:52:30.611Z,97042.49
2019-01-18T21:55:38.143Z,97035.90
2019-01-18T21:58:45.673Z,97034.54
2019-01-18T22:01:51.274Z,97038.30
2019-01-18T22:05:11.564Z,97029.56
2019-01-18T22:08:08.248Z,97040.23
2019-01-18T22:11:15.812Z,97038.05
2019-01-18T22:14:21.383Z,97035.43
2019-01-18T22:17:28.865Z,97029.84
2019-01-18T22:20:36.390Z,97029.91
2019-01-18T22:23:09.119Z,97030.34
2019-01-18T22:25:44.793Z,97029.96
2019-01-18T22:28:26.286Z,96983.45
2019-01-18T22:31:33.772Z,97030.87
2019-01-18T22:34:47.583Z,97030.34
2019-01-18T22:37:48.732Z,97021.21
2019-01-18T22:40:54.321Z,97021.44
2019-01-18T22:44:01.799Z,97023.56
2019-01-18T22:47:07.379Z,97021.20
2019-01-18T22:50:13.013Z,97021.34
2019-01-18T22:53:18.625Z,97028.17
2019-01-18T22:56:26.099Z,97021.07
2019-01-18T22:59:31.674Z,97021.25
2019-01-18T23:02:39.145Z,97013.63
2019-01-18T23:05:44.743Z,97013.55
2019-01-18T23:08:52.228Z,97006.11
2019-01-18T23:11:59.741Z,97012.99
2019-01-18T23:15:07.239Z,97010.77
2019-01-18T23:18:14.725Z,97002.73
2019-01-18T23:21:22.228Z,97003.40
2019-01-18T23:24:29.701Z,97001.47
2019-01-18T23:27:37.191Z,96987.83
2019-01-18T23:30:42.776Z,96990.41
2019-01-18T23:33:48.360Z,96987.53
2019-01-18T23:36:55.835Z,96980.20
2019-01-18T23:40:01.411Z,96983.48
2019-01-18T23:43:08.902Z,96983.67
2019-01-18T23:46:14.507Z,96976.76
2019-01-18T23:49:21.997Z,96974.60
2019-01-18T23:52:29.465Z,96969.88
2019-01-18T23:55:36.934Z,96966.00
2019-01-18T23:58:44.407Z,96967.44
